Ana Sayfa
METAR-TAF:

METAR-TAF

Havaalanları :

Soçi Uluslararası Havalimanı

Soçi, Rusya

Enlem: 43-26N, Boylam: 039-54E, yükseklik: 16 m

Güncel hava durumu gözlemi

Rapor saat 05:00 UTC de 36 dakika önce yapıldı.
Rüzgar kuzeydoğudan 12 kt
Sıcaklık 7°C
Nem 57%
Basınç 1023 hPa
Görüş mesafesi 10 km veya daha fazla
4000 ft yükseklikte az bulutlu

METAR: URSS 180500Z 04006MPS 9999 FEW040 07/M01 Q1023 R02/010070 R06/010070 NOSIG RMK R06/06001MPS MT OBSC QFE766

Saat: 09:36 (05:36 UTC)

Tahmin

Rapor saat 01:56 UTC de 3 saat ve 40 dakika önce yapıldı.
Ayın 18'si saat 03 UTC'den ayın 19'si saat 03 UTC'ye kadar geçerli Tahmin
Rüzgar kuzeydoğudan 12 kt
Görüş mesafesi 10 km veya daha fazla
Dönüşüyor
ayın 18'si saat 08 UTC'den ayın 18'si saat 09 UTC'ye kadar
Rüzgar batı/güneybatıdan 10 kt
Dönüşüyor
ayın 18'si saat 14 UTC'den ayın 18'si saat 15 UTC'ye kadar
Rüzgar kuzeydoğudan 14 kt

TAF: URSS 180156Z 1803/1903 05006MPS 9999 NSC BECMG 1808/1809 24005MPS BECMG 1814/1815 05007MPS

4.000'den fazla havaalanı için hava durumu gözlemleri ve tahminleri (METAR ve TAF raporları).

Kullanılabilir istasyonlar harita üzerinde sarı ve kırmızı noktalarla gösterilir.

İstasyonun adını görmek için fareyi noktanın üzerinde gezdirin.

Sonrasında hava gözlem ve tahminlerini görmek için tıklayın.

Haritayı değiştirmek için: yaklaştırmak için siyah artı işaretli yeşil düğmeye ve uzaklaştırmak için de eksi işaretli düğmeye hızla tıklayın; bitişik haritalar için yeşil okları kullanın.


METAR-TAF: